Time;durP1;ratioP1;P1;durP2;ratioP2;P2;SDS_P1;SDS_P2;PMS_P1;PMS_P2;Temp;Humidity;BMP_temperature;BMP_pressure;BME280_temperature;BME280_humidity;BME280_pressure;Samples;Min_cycle;Max_cycle;Signal;HPM_P1;HPM_P2
2022/12/09 00:00:31;;;;;;;123.35;80.57;;;;;;;6.06;100.00;101053.31;5032727;28;20491;-94
2022/12/09 00:02:59;;;;;;;123.38;79.40;;;;;;;6.02;100.00;101059.94;5032802;28;20084;-93
2022/12/09 00:05:26;;;;;;;115.55;77.78;;;;;;;6.10;100.00;101074.88;5033024;28;20069;-94
2022/12/09 00:07:53;;;;;;;115.32;74.05;;;;;;;6.14;100.00;101071.75;5011223;28;20058;-94
2022/12/09 00:10:20;;;;;;;110.40;78.07;;;;;;;6.06;100.00;101073.59;5013037;28;20082;-94
2022/12/09 00:12:47;;;;;;;109.57;71.00;;;;;;;5.99;100.00;101096.31;5026087;28;20045;-94
2022/12/09 00:15:13;;;;;;;104.75;72.90;;;;;;;6.02;100.00;101094.22;5031206;28;20037;-94
2022/12/09 00:17:40;;;;;;;110.63;68.07;;;;;;;6.14;100.00;101084.09;5030650;28;20042;-94
2022/12/09 00:20:10;;;;;;;100.60;71.78;;;;;;;6.12;100.00;101072.91;5030398;28;20053;-94
2022/12/09 00:22:37;;;;;;;114.25;75.70;;;;;;;6.16;100.00;101074.22;5030706;28;20053;-94
2022/12/09 00:25:04;;;;;;;116.78;72.95;;;;;;;6.15;100.00;101057.56;5031616;28;20042;-94
2022/12/09 00:27:31;;;;;;;120.72;75.15;;;;;;;6.04;100.00;101057.09;5021084;28;20073;-94
2022/12/09 00:29:58;;;;;;;123.70;81.45;;;;;;;5.97;100.00;101060.41;5010638;28;20050;-94
2022/12/09 00:32:24;;;;;;;121.47;76.90;;;;;;;6.03;100.00;101051.00;5029785;28;20077;-94
2022/12/09 00:34:51;;;;;;;148.98;94.38;;;;;;;6.07;100.00;101044.41;5030740;28;20046;-94
2022/12/09 00:37:19;;;;;;;159.80;100.15;;;;;;;6.13;100.00;101053.47;5029343;28;20100;-94
2022/12/09 00:39:46;;;;;;;121.82;79.75;;;;;;;5.95;100.00;101062.38;5031247;28;20061;-94
2022/12/09 00:42:13;;;;;;;124.35;76.43;;;;;;;6.03;100.00;101068.66;5030762;28;20073;-93
2022/12/09 00:44:40;;;;;;;121.57;80.68;;;;;;;6.00;100.00;101072.44;5030843;28;20049;-94
2022/12/09 00:47:06;;;;;;;111.50;78.78;;;;;;;6.11;100.00;101052.78;5029579;28;20057;-93
2022/12/09 00:49:33;;;;;;;121.93;78.28;;;;;;;6.07;100.00;101067.31;5030532;28;20077;-94
2022/12/09 00:52:00;;;;;;;133.68;82.47;;;;;;;6.16;100.00;101071.59;5030264;28;20081;-93
2022/12/09 00:54:28;;;;;;;125.60;78.97;;;;;;;6.01;100.00;101078.53;5030478;28;20042;-94
2022/12/09 00:56:55;;;;;;;144.85;89.72;;;;;;;6.13;100.00;101100.94;5028790;28;20068;-94
2022/12/09 00:59:22;;;;;;;136.20;84.10;;;;;;;6.06;100.00;101084.13;5030356;28;20046;-94
2022/12/09 01:01:49;;;;;;;145.93;79.13;;;;;;;6.08;100.00;101095.31;5025835;28;20045;-94
2022/12/09 01:04:17;;;;;;;133.95;76.72;;;;;;;5.83;100.00;101083.94;5027066;28;20053;-94
2022/12/09 01:06:43;;;;;;;150.68;84.88;;;;;;;5.98;100.00;101084.97;5029538;28;20109;-93
2022/12/09 01:09:12;;;;;;;128.45;74.88;;;;;;;6.05;100.00;101087.75;5029648;28;20054;-94
2022/12/09 01:11:40;;;;;;;122.97;71.53;;;;;;;6.06;100.00;101084.97;5029364;28;20050;-94
2022/12/09 01:14:10;;;;;;;113.43;82.30;;;;;;;6.09;100.00;101097.81;5029558;28;20070;-94
2022/12/09 01:16:36;;;;;;;123.18;77.60;;;;;;;6.03;100.00;101082.66;5033699;28;20115;-93
2022/12/09 01:19:05;;;;;;;107.90;78.57;;;;;;;6.27;100.00;101084.44;5033882;28;20054;-93
2022/12/09 01:21:33;;;;;;;121.80;86.03;;;;;;;6.13;100.00;101085.94;5033880;28;20073;-93
2022/12/09 01:24:00;;;;;;;113.85;81.30;;;;;;;6.07;100.00;101085.78;5033976;28;20081;-93
2022/12/09 01:26:27;;;;;;;107.43;76.38;;;;;;;6.09;100.00;101097.00;5032814;28;20120;-93
2022/12/09 01:28:56;;;;;;;125.13;85.45;;;;;;;6.09;100.00;101095.19;5032752;28;20050;-93
2022/12/09 01:31:24;;;;;;;123.20;90.07;;;;;;;6.02;100.00;101103.91;5032318;28;20053;-93
2022/12/09 01:33:51;;;;;;;104.72;78.93;;;;;;;5.84;100.00;101101.41;5015418;28;20054;-94
2022/12/09 01:36:21;;;;;;;104.22;81.40;;;;;;;6.01;100.00;101108.34;5011969;28;20065;-93
2022/12/09 01:38:50;;;;;;;103.82;82.40;;;;;;;5.99;100.00;101109.50;5012085;28;20054;-93
2022/12/09 01:41:18;;;;;;;111.93;85.70;;;;;;;6.07;100.00;101105.06;5027570;28;20052;-93
2022/12/09 01:43:46;;;;;;;108.57;78.28;;;;;;;5.87;100.00;101115.09;5028979;28;20069;-93
2022/12/09 01:46:14;;;;;;;121.72;86.22;;;;;;;5.90;100.00;101129.75;5027384;28;20042;-94
2022/12/09 01:48:44;;;;;;;114.05;85.32;;;;;;;5.92;100.00;101125.16;5027707;28;20525;-94
2022/12/09 01:51:14;;;;;;;116.53;83.93;;;;;;;6.02;100.00;101101.25;5028469;28;20046;-94
2022/12/09 01:53:45;;;;;;;108.28;83.25;;;;;;;6.01;100.00;101100.44;5028413;28;20053;-94
2022/12/09 01:56:15;;;;;;;108.68;80.00;;;;;;;5.96;100.00;101106.25;5028962;28;20053;-94
2022/12/09 01:58:42;;;;;;;123.82;86.60;;;;;;;5.95;100.00;101096.66;5028628;28;20058;-94
2022/12/09 02:01:09;;;;;;;128.93;89.20;;;;;;;5.86;100.00;101089.72;5028438;28;20049;-94
2022/12/09 02:03:38;;;;;;;106.32;75.45;;;;;;;5.88;100.00;101081.66;5027578;28;20045;-94
2022/12/09 02:06:05;;;;;;;108.82;70.20;;;;;;;5.93;100.00;101092.53;5028184;28;20060;-94
2022/12/09 02:08:31;;;;;;;100.03;77.25;;;;;;;5.91;100.00;101084.78;5027254;28;20046;-94
2022/12/09 02:11:07;;;;;;;112.07;86.05;;;;;;;5.85;100.00;101095.16;5027209;28;20045;-94
2022/12/09 02:13:44;;;;;;;115.93;82.05;;;;;;;5.85;100.00;101087.25;5028563;28;20124;-94
2022/12/09 02:16:16;;;;;;;110.75;81.70;;;;;;;5.99;100.00;101086.63;5027665;28;20046;-93
2022/12/09 02:18:52;;;;;;;113.03;86.95;;;;;;;5.91;100.00;101090.06;5026836;28;20053;-94
2022/12/09 02:21:24;;;;;;;102.53;77.35;;;;;;;5.94;100.00;101087.09;5031888;28;20046;-94
2022/12/09 02:23:56;;;;;;;116.75;83.47;;;;;;;5.92;100.00;101083.78;5020568;28;20073;-93
2022/12/09 02:26:25;;;;;;;;;;;;;;;5.82;100.00;101077.88;5031380;28;20076;-94
2022/12/09 02:29:20;;;;;;;101.75;73.75;;;;;;;5.87;100.00;101080.00;5031681;28;19944;-93
2022/12/09 02:32:09;;;;;;;118.85;82.10;;;;;;;5.83;100.00;101083.94;5031501;28;20054;-93
2022/12/09 02:34:42;;;;;;;111.03;73.38;;;;;;;5.73;100.00;101082.31;5012837;28;20073;-93
2022/12/09 02:37:17;;;;;;;126.47;76.55;;;;;;;5.86;100.00;101073.91;5014769;28;20042;-93
2022/12/09 02:39:51;;;;;;;120.85;76.25;;;;;;;5.88;100.00;101071.09;5023133;28;20054;-94
2022/12/09 02:42:22;;;;;;;115.05;78.10;;;;;;;5.88;100.00;101074.56;5012574;28;20058;-93
2022/12/09 02:44:52;;;;;;;108.40;85.25;;;;;;;5.82;100.00;101063.88;5012020;28;20046;-94
2022/12/09 02:47:24;;;;;;;127.20;82.57;;;;;;;5.84;100.00;101072.41;5029565;28;20054;-95
2022/12/09 02:49:59;;;;;;;111.53;88.45;;;;;;;5.92;100.00;101067.13;5012058;28;20047;-93
2022/12/09 02:52:27;;;;;;;133.65;98.00;;;;;;;5.79;100.00;101066.84;5026077;28;20082;-94
2022/12/09 02:54:55;;;;;;;126.22;88.10;;;;;;;5.70;100.00;101087.09;5030474;28;20046;-93
2022/12/09 02:57:26;;;;;;;119.20;80.45;;;;;;;5.69;100.00;101090.72;5030461;28;20053;-94
2022/12/09 02:59:52;;;;;;;112.65;77.63;;;;;;;5.70;100.00;101077.38;5029599;28;20046;-93
2022/12/09 03:02:27;;;;;;;125.45;80.90;;;;;;;5.80;100.00;101082.47;5045628;23;20084;-85
2022/12/09 03:05:09;;;;;;;117.00;84.80;;;;;;;5.72;100.00;101087.75;5033005;28;20497;-85
2022/12/09 03:07:43;;;;;;;118.53;80.18;;;;;;;5.77;100.00;101079.34;5033725;28;20064;-82
2022/12/09 03:10:16;;;;;;;104.90;75.63;;;;;;;5.75;100.00;101092.72;5033424;28;20444;-87
2022/12/09 03:12:51;;;;;;;108.85;77.38;;;;;;;5.71;100.00;101094.81;5033507;28;20052;-84
2022/12/09 03:15:22;;;;;;;100.22;85.95;;;;;;;5.66;100.00;101096.34;5033688;28;20053;-82
2022/12/09 03:17:50;;;;;;;96.72;78.18;;;;;;;5.61;100.00;101102.09;5032841;28;20140;-83
2022/12/09 03:20:26;;;;;;;100.80;86.00;;;;;;;5.69;100.00;101094.19;5033662;28;20042;-83
2022/12/09 03:22:56;;;;;;;100.95;77.05;;;;;;;5.80;100.00;101079.00;5033495;28;20057;-85
2022/12/09 03:25:28;;;;;;;104.82;74.88;;;;;;;5.76;100.00;101088.25;5033363;28;20057;-83
2022/12/09 03:27:58;;;;;;;94.97;71.43;;;;;;;5.73;100.00;101090.22;5033260;28;20049;-83
2022/12/09 03:30:25;;;;;;;102.78;71.55;;;;;;;5.66;100.00;101102.41;5032881;28;20083;-86
2022/12/09 03:32:54;;;;;;;98.05;75.57;;;;;;;5.67;100.00;101101.41;5033461;28;20049;-83
2022/12/09 03:35:28;;;;;;;96.68;68.90;;;;;;;5.71;100.00;101086.09;5032788;28;20049;-83
2022/12/09 03:37:56;;;;;;;93.93;69.05;;;;;;;5.61;100.00;101081.00;5034214;28;20045;-85
2022/12/09 03:40:27;;;;;;;92.45;72.45;;;;;;;5.67;100.00;101093.50;5037069;28;20061;-85
2022/12/09 03:42:58;;;;;;;99.82;77.30;;;;;;;5.58;100.00;101105.03;5036776;28;20087;-84
2022/12/09 03:45:26;;;;;;;92.07;75.00;;;;;;;5.49;100.00;101113.94;5036668;28;20107;-86
2022/12/09 03:47:53;;;;;;;86.10;74.47;;;;;;;5.55;100.00;101112.44;5019379;28;20065;-84
2022/12/09 03:50:25;;;;;;;84.93;75.97;;;;;;;5.65;100.00;101119.19;5028988;28;20045;-82
2022/12/09 03:52:58;;;;;;;88.75;68.43;;;;;;;5.65;100.00;101110.47;5036680;28;20049;-82
2022/12/09 03:55:33;;;;;;;85.80;76.50;;;;;;;5.62;100.00;101101.09;5036037;28;20053;-85
2022/12/09 03:58:02;;;;;;;90.38;72.43;;;;;;;5.59;100.00;101103.22;5028673;28;20053;-82
2022/12/09 04:00:30;;;;;;;77.93;59.78;;;;;;;5.55;100.00;101102.72;5025914;28;20057;-84
2022/12/09 04:02:56;;;;;;;81.72;60.88;;;;;;;5.58;100.00;101117.41;5036161;28;20567;-82
2022/12/09 04:05:24;;;;;;;80.40;65.43;;;;;;;5.55;100.00;101123.00;5036038;28;20076;-82
2022/12/09 04:07:51;;;;;;;90.78;68.13;;;;;;;5.69;100.00;101133.72;5032099;28;20166;-82
2022/12/09 04:10:18;;;;;;;93.80;71.13;;;;;;;5.77;100.00;101118.88;5026514;28;20138;-82
2022/12/09 04:12:45;;;;;;;85.97;68.25;;;;;;;5.73;100.00;101131.56;5035464;28;20049;-85
2022/12/09 04:15:12;;;;;;;89.78;67.85;;;;;;;5.58;100.00;101127.94;5036161;28;20107;-88
2022/12/09 04:17:38;;;;;;;82.22;62.70;;;;;;;5.68;100.00;101124.16;5035838;28;20057;-82
2022/12/09 04:20:06;;;;;;;100.57;66.93;;;;;;;5.68;100.00;101133.88;5036512;28;20084;-82
2022/12/09 04:22:41;;;;;;;83.80;69.25;;;;;;;5.53;100.00;101130.22;5036120;28;20375;-85
2022/12/09 04:25:17;;;;;;;82.47;69.00;;;;;;;5.54;100.00;101126.59;5030729;28;20465;-85
2022/12/09 04:27:53;;;;;;;85.25;66.65;;;;;;;5.63;100.00;101121.19;5036089;28;20076;-84
2022/12/09 04:30:20;;;;;;;85.40;63.65;;;;;;;5.55;100.00;101107.19;5035996;28;20057;-82
2022/12/09 04:32:47;;;;;;;101.65;76.10;;;;;;;5.59;100.00;101113.75;5035893;28;20099;-82
2022/12/09 04:35:14;;;;;;;84.43;65.35;;;;;;;5.61;100.00;101109.97;5035636;28;20049;-85
2022/12/09 04:37:42;;;;;;;92.30;63.97;;;;;;;5.49;100.00;101103.38;5036027;28;20049;-84
2022/12/09 04:40:09;;;;;;;80.90;65.32;;;;;;;5.47;100.00;101098.25;5035519;28;20054;-82
2022/12/09 04:42:36;;;;;;;80.93;58.50;;;;;;;5.57;100.00;101116.59;5035431;28;20046;-85
2022/12/09 04:45:03;;;;;;;93.75;59.95;;;;;;;5.59;100.00;101126.94;5035674;28;20037;-84
2022/12/09 04:47:30;;;;;;;83.85;61.58;;;;;;;5.46;100.00;101138.78;5035261;28;20045;-84
2022/12/09 04:49:57;;;;;;;91.95;62.22;;;;;;;5.60;100.00;101120.66;5034565;28;20099;-87
2022/12/09 04:52:23;;;;;;;108.32;78.75;;;;;;;5.54;100.00;101114.28;5035512;28;20046;-85
2022/12/09 04:54:52;;;;;;;89.38;60.15;;;;;;;5.59;100.00;101103.22;4973468;28;20128;-82
2022/12/09 04:57:19;;;;;;;85.82;56.75;;;;;;;5.55;100.00;101104.56;5015380;28;20237;-83
2022/12/09 04:59:45;;;;;;;96.50;60.10;;;;;;;5.39;100.00;101108.00;5015618;28;20108;-82
2022/12/09 05:02:12;;;;;;;115.60;57.10;;;;;;;5.38;100.00;101115.06;5012885;28;20054;-81
2022/12/09 05:04:41;;;;;;;107.60;60.42;;;;;;;5.44;100.00;101119.66;5014632;28;20053;-84
2022/12/09 05:07:08;;;;;;;87.60;51.30;;;;;;;5.51;100.00;101117.22;5013992;28;20453;-84
2022/12/09 05:09:34;;;;;;;96.82;53.40;;;;;;;5.56;100.00;101127.28;5014290;28;20108;-82
2022/12/09 05:12:02;;;;;;;95.28;57.95;;;;;;;5.60;100.00;101132.06;5014570;28;20053;-82
2022/12/09 05:14:29;;;;;;;89.35;53.33;;;;;;;5.51;100.00;101141.75;5014173;28;20084;-84
2022/12/09 05:16:56;;;;;;;73.28;50.97;;;;;;;5.56;100.00;101136.00;5014091;28;20050;-86
2022/12/09 05:19:23;;;;;;;78.88;50.70;;;;;;;5.50;100.00;101131.38;5014789;28;20054;-86
2022/12/09 05:21:50;;;;;;;76.25;51.50;;;;;;;5.48;100.00;101122.81;5014845;28;20548;-85
2022/12/09 05:24:17;;;;;;;69.20;51.22;;;;;;;5.52;100.00;101129.41;5014935;28;20050;-84
2022/12/09 05:26:43;;;;;;;64.82;49.08;;;;;;;5.40;100.00;101141.25;5014546;28;20045;-83
2022/12/09 05:29:11;;;;;;;66.85;51.25;;;;;;;5.36;100.00;101130.22;5013566;28;20180;-81
2022/12/09 05:31:38;;;;;;;67.60;52.42;;;;;;;5.33;100.00;101134.97;5014026;28;20046;-84
2022/12/09 05:34:05;;;;;;;63.85;49.05;;;;;;;5.15;100.00;101137.72;5015045;28;20115;-81
2022/12/09 05:36:32;;;;;;;69.55;51.78;;;;;;;5.21;100.00;101140.53;5014474;28;20045;-82
2022/12/09 05:39:02;;;;;;;62.35;49.85;;;;;;;5.34;100.00;101150.63;5015065;28;20049;-86
2022/12/09 05:41:30;;;;;;;62.50;46.92;;;;;;;5.43;100.00;101152.28;5014514;28;20467;-83
2022/12/09 05:43:57;;;;;;;63.92;46.22;;;;;;;5.48;100.00;101143.91;5015188;28;20049;-84
2022/12/09 05:46:25;;;;;;;61.63;51.47;;;;;;;5.25;100.00;101141.03;5014011;28;20057;-82
2022/12/09 05:48:52;;;;;;;60.00;48.30;;;;;;;5.35;100.00;101136.44;5013599;28;20053;-84
2022/12/09 05:51:23;;;;;;;64.18;46.47;;;;;;;5.46;100.00;101144.06;5013398;28;20053;-83
2022/12/09 05:53:50;;;;;;;67.25;50.10;;;;;;;5.44;100.00;101148.66;5013759;28;20065;-82
2022/12/09 05:56:17;;;;;;;65.10;48.85;;;;;;;5.14;100.00;101165.03;5013118;28;20054;-81
2022/12/09 05:58:44;;;;;;;66.18;45.80;;;;;;;5.32;100.00;101162.28;5013472;28;20498;-83
2022/12/09 06:01:12;;;;;;;70.43;46.97;;;;;;;5.38;100.00;101162.47;5012417;28;20057;-82
2022/12/09 06:03:40;;;;;;;56.15;46.42;;;;;;;5.28;100.00;101159.97;5014338;28;20116;-86
2022/12/09 06:06:08;;;;;;;60.30;46.17;;;;;;;5.23;100.00;101175.47;5003346;28;20453;-85
2022/12/09 06:08:35;;;;;;;59.53;46.78;;;;;;;5.15;100.00;101195.66;5012556;28;20112;-82
2022/12/09 06:11:03;;;;;;;57.40;46.05;;;;;;;5.04;100.00;101186.22;5011763;28;20053;-85
2022/12/09 06:13:30;;;;;;;68.00;48.22;;;;;;;5.20;100.00;101178.38;5012298;28;20124;-82
2022/12/09 06:16:02;;;;;;;59.03;46.17;;;;;;;5.28;100.00;101174.97;5013814;28;20053;-81
2022/12/09 06:18:29;;;;;;;61.72;48.15;;;;;;;5.24;100.00;101179.72;5012953;28;20053;-82
2022/12/09 06:20:58;;;;;;;59.33;46.10;;;;;;;5.32;100.00;101178.09;5013749;28;20046;-83
2022/12/09 06:23:25;;;;;;;61.90;48.33;;;;;;;5.39;100.00;101171.22;5007203;28;20115;-83
2022/12/09 06:25:52;;;;;;;60.45;51.88;;;;;;;5.24;100.00;101158.66;5013802;28;20049;-82
2022/12/09 06:28:20;;;;;;;64.78;52.28;;;;;;;5.41;100.00;101162.16;5013791;28;20045;-82
2022/12/09 06:30:47;;;;;;;56.97;50.67;;;;;;;5.33;100.00;101161.31;5013949;28;20498;-82
2022/12/09 06:33:13;;;;;;;60.60;50.25;;;;;;;5.28;100.00;101162.59;5013864;28;20375;-83
2022/12/09 06:35:40;;;;;;;57.42;51.40;;;;;;;5.08;100.00;101150.69;5012324;28;20546;-86
2022/12/09 06:38:09;;;;;;;57.17;51.25;;;;;;;4.98;100.00;101152.63;4995795;28;20042;-86
2022/12/09 06:40:40;;;;;;;51.30;45.67;;;;;;;5.10;100.00;101151.38;5011714;28;20058;-86
2022/12/09 06:43:07;;;;;;;58.03;52.05;;;;;;;5.17;100.00;101162.06;5013470;28;20501;-82
2022/12/09 06:45:35;;;;;;;55.00;49.15;;;;;;;5.15;100.00;101162.25;5013127;28;20380;-82
2022/12/09 06:48:02;;;;;;;51.70;46.53;;;;;;;5.09;100.00;101168.16;5012439;28;20482;-85
2022/12/09 06:50:29;;;;;;;57.17;50.53;;;;;;;5.15;100.00;101174.59;5013168;28;20060;-82
2022/12/09 06:52:56;;;;;;;51.63;46.50;;;;;;;5.18;100.00;101182.19;5013495;28;20046;-87
2022/12/09 06:55:24;;;;;;;50.58;46.03;;;;;;;5.19;100.00;101183.81;5012753;28;20124;-87
2022/12/09 06:57:51;;;;;;;50.38;45.70;;;;;;;5.19;100.00;101181.19;5012988;28;20045;-85
2022/12/09 07:00:18;;;;;;;49.25;44.63;;;;;;;5.26;100.00;101177.78;5012985;28;20108;-85
2022/12/09 07:02:45;;;;;;;48.15;43.58;;;;;;;5.26;100.00;101175.13;5012755;28;20180;-86
2022/12/09 07:05:12;;;;;;;49.90;44.85;;;;;;;5.16;100.00;101174.44;5013203;28;20057;-82
2022/12/09 07:07:39;;;;;;;47.58;42.83;;;;;;;5.35;100.00;101175.97;5012994;28;20058;-86
2022/12/09 07:10:08;;;;;;;47.17;42.35;;;;;;;5.41;100.00;101174.50;5004503;28;20054;-85
2022/12/09 07:12:37;;;;;;;47.95;43.35;;;;;;;5.49;100.00;101177.16;5000806;28;20050;-83
2022/12/09 07:15:04;;;;;;;53.00;48.20;;;;;;;5.36;100.00;101177.63;5012693;28;20053;-87
2022/12/09 07:17:31;;;;;;;52.92;48.53;;;;;;;5.26;100.00;101171.66;5006972;28;20588;-81
2022/12/09 07:19:57;;;;;;;50.75;46.28;;;;;;;5.45;100.00;101173.22;5007429;28;20454;-83
2022/12/09 07:22:24;;;;;;;58.42;52.60;;;;;;;5.67;100.00;101171.75;5011935;28;20104;-85
2022/12/09 07:24:51;;;;;;;53.78;48.67;;;;;;;5.59;100.00;101174.38;5015645;28;20046;-83
2022/12/09 07:27:17;;;;;;;58.20;52.92;;;;;;;5.45;100.00;101171.41;5016055;28;20474;-85
2022/12/09 07:29:46;;;;;;;58.33;52.53;;;;;;;5.53;100.00;101167.94;5016417;28;20049;-84
2022/12/09 07:32:13;;;;;;;55.58;50.38;;;;;;;5.58;100.00;101167.47;5016081;28;20104;-85
2022/12/09 07:34:39;;;;;;;53.83;48.78;;;;;;;5.54;100.00;101171.38;5015824;28;20111;-85
2022/12/09 07:37:07;;;;;;;51.58;46.95;;;;;;;5.54;100.00;101166.13;5015641;28;20053;-85
2022/12/09 07:39:33;;;;;;;47.95;43.72;;;;;;;5.65;100.00;101169.28;5016755;28;20479;-84
2022/12/09 07:42:00;;;;;;;50.25;45.95;;;;;;;5.69;100.00;101165.34;5017229;28;20057;-83
2022/12/09 07:44:27;;;;;;;45.63;41.72;;;;;;;5.87;100.00;101170.47;5017009;28;20053;-83
2022/12/09 07:46:56;;;;;;;47.80;43.92;;;;;;;5.96;100.00;101181.84;5016886;28;20577;-83
2022/12/09 07:49:23;;;;;;;45.47;41.97;;;;;;;5.85;100.00;101175.06;5016911;28;20128;-83
2022/12/09 07:51:50;;;;;;;45.90;42.22;;;;;;;5.63;100.00;101173.09;5016665;28;20127;-83
2022/12/09 07:54:19;;;;;;;46.92;43.35;;;;;;;5.83;100.00;101173.59;5016574;28;20045;-87
2022/12/09 07:56:46;;;;;;;46.88;43.10;;;;;;;5.42;100.00;101163.81;5016971;28;20046;-82
2022/12/09 07:59:14;;;;;;;42.70;39.28;;;;;;;5.66;100.00;101167.50;5016900;28;20120;-82
2022/12/09 08:01:41;;;;;;;45.40;41.67;;;;;;;5.75;100.00;101169.16;5016019;28;20062;-82
2022/12/09 08:04:09;;;;;;;45.35;41.85;;;;;;;5.60;100.00;101158.41;5016709;28;20053;-86
2022/12/09 08:06:36;;;;;;;45.80;42.20;;;;;;;5.96;100.00;101155.47;5016844;28;20061;-86
2022/12/09 08:09:07;;;;;;;44.45;40.83;;;;;;;5.58;100.00;101160.38;5016816;28;20049;-85
2022/12/09 08:11:35;;;;;;;43.70;40.15;;;;;;;5.66;100.00;101162.22;5016817;28;20058;-83
2022/12/09 08:14:04;;;;;;;45.72;41.88;;;;;;;5.82;100.00;101161.41;5016701;28;20062;-84
2022/12/09 08:16:31;;;;;;;45.65;41.67;;;;;;;5.96;100.00;101152.84;5016650;28;20077;-82
2022/12/09 08:18:58;;;;;;;48.83;44.70;;;;;;;6.01;100.00;101153.19;5016331;28;20115;-83
2022/12/09 08:21:27;;;;;;;48.38;44.60;;;;;;;5.98;100.00;101156.16;5017184;28;20042;-83
2022/12/09 08:23:55;;;;;;;47.58;43.88;;;;;;;5.92;100.00;101152.31;5015941;28;20050;-84
2022/12/09 08:26:24;;;;;;;48.97;45.28;;;;;;;5.84;100.00;101152.34;5016553;28;20050;-85
2022/12/09 08:28:51;;;;;;;50.10;46.50;;;;;;;5.91;100.00;101147.22;5017041;28;20066;-84
2022/12/09 08:31:20;;;;;;;53.55;49.45;;;;;;;5.96;100.00;101151.06;5017750;28;20061;-88
2022/12/09 08:33:47;;;;;;;49.00;45.15;;;;;;;5.91;100.00;101155.16;5016593;28;20470;-86
2022/12/09 08:36:17;;;;;;;44.53;41.13;;;;;;;5.96;100.00;101161.59;5016938;28;20121;-83
2022/12/09 08:38:45;;;;;;;47.28;43.60;;;;;;;5.82;100.00;101158.75;5016907;28;20053;-84
2022/12/09 08:41:13;;;;;;;47.75;44.00;;;;;;;5.79;100.00;101162.56;5016622;28;20050;-87
2022/12/09 08:43:41;;;;;;;47.47;43.80;;;;;;;5.79;100.00;101165.19;5017440;28;20050;-84
2022/12/09 08:46:09;;;;;;;48.08;44.47;;;;;;;5.79;100.00;101159.91;5016843;28;20050;-87
2022/12/09 08:48:37;;;;;;;47.78;43.55;;;;;;;5.68;100.00;101150.50;5016724;28;20049;-87
2022/12/09 08:51:04;;;;;;;45.22;41.53;;;;;;;5.82;100.00;101146.41;5016473;28;20082;-84
2022/12/09 08:53:31;;;;;;;45.30;41.58;;;;;;;6.03;100.00;101145.94;5015595;28;20104;-87
2022/12/09 08:55:59;;;;;;;46.38;42.67;;;;;;;6.12;100.00;101142.31;5016309;28;20124;-86
2022/12/09 08:58:26;;;;;;;48.00;44.20;;;;;;;6.07;100.00;101136.69;5016976;28;20375;-86
2022/12/09 09:00:53;;;;;;;51.92;47.33;;;;;;;6.11;100.00;101132.75;5016147;28;20532;-86
2022/12/09 09:03:20;;;;;;;50.03;46.13;;;;;;;6.07;100.00;101127.97;5015634;28;20054;-86
2022/12/09 09:05:46;;;;;;;52.17;47.80;;;;;;;6.19;100.00;101116.91;5016788;28;20475;-84
2022/12/09 09:08:13;;;;;;;55.05;50.55;;;;;;;6.27;100.00;101110.81;5016088;28;20049;-83
2022/12/09 09:10:40;;;;;;;59.15;54.03;;;;;;;6.40;100.00;101108.47;5016030;28;20050;-87
2022/12/09 09:13:08;;;;;;;56.97;52.05;;;;;;;6.31;100.00;101114.75;5016507;28;20049;-83
2022/12/09 09:15:35;;;;;;;56.75;52.03;;;;;;;6.38;100.00;101107.81;5016012;28;20053;-86
2022/12/09 09:18:01;;;;;;;58.50;53.95;;;;;;;6.23;100.00;101113.94;5016082;28;20092;-85
2022/12/09 09:20:28;;;;;;;58.15;53.25;;;;;;;6.11;100.00;101105.53;5016603;28;20054;-86
2022/12/09 09:22:55;;;;;;;55.63;51.20;;;;;;;6.30;100.00;101101.75;5016489;28;20053;-87
2022/12/09 09:28:41;;;;;;;61.80;56.53;;;;;;;6.08;100.00;101088.25;4997291;28;20061;-86
2022/12/09 09:31:11;;;;;;;53.03;49.00;;;;;;;6.03;100.00;101089.75;5017241;28;20128;-88
2022/12/09 09:33:38;;;;;;;50.78;46.88;;;;;;;6.34;100.00;101090.66;5015529;28;20080;-88
2022/12/09 09:36:07;;;;;;;57.88;53.65;;;;;;;6.45;100.00;101078.94;5015129;28;20537;-86
2022/12/09 09:38:34;;;;;;;51.75;48.05;;;;;;;6.65;100.00;101080.16;5015753;28;20054;-85
2022/12/09 09:41:06;;;;;;;53.92;49.78;;;;;;;6.56;100.00;101078.53;5015496;28;20120;-84
2022/12/09 09:43:37;;;;;;;54.10;49.80;;;;;;;6.51;100.00;101077.44;5015172;28;20120;-86
2022/12/09 09:46:06;;;;;;;55.22;50.97;;;;;;;6.52;100.00;101074.63;5015312;28;20449;-88
2022/12/09 09:48:35;;;;;;;49.55;45.75;;;;;;;6.48;100.00;101068.03;5015421;28;20510;-83
2022/12/09 09:51:10;;;;;;;47.78;44.28;;;;;;;6.57;100.00;101066.19;5015642;28;20046;-86
2022/12/09 09:53:38;;;;;;;48.67;44.67;;;;;;;6.55;100.00;101060.25;5015249;28;20054;-87
2022/12/09 09:56:16;;;;;;;51.05;46.80;;;;;;;6.54;100.00;101064.72;5015142;28;20046;-88
2022/12/09 09:58:49;;;;;;;49.00;44.97;;;;;;;6.53;100.00;101052.50;5015094;28;20057;-84
2022/12/09 10:01:18;;;;;;;52.78;48.67;;;;;;;6.62;100.00;101037.44;5015340;28;20054;-85
2022/12/09 10:03:53;;;;;;;56.63;52.33;;;;;;;6.51;100.00;101030.75;5014550;28;20544;-85
2022/12/09 10:06:31;;;;;;;53.22;49.22;;;;;;;6.58;100.00;101028.25;5015487;28;20058;-84
2022/12/09 10:09:07;;;;;;;57.30;52.50;;;;;;;6.46;100.00;101019.88;5015312;28;20057;-88
2022/12/09 10:11:40;;;;;;;56.72;51.95;;;;;;;6.51;100.00;101017.56;5014797;28;20060;-86
2022/12/09 10:14:15;;;;;;;62.70;57.38;;;;;;;6.55;100.00;101025.94;5014621;28;20084;-87
2022/12/09 10:16:49;;;;;;;80.97;72.65;;;;;;;6.70;100.00;101026.06;5016610;28;20085;-88
2022/12/09 10:19:21;;;;;;;61.03;55.63;;;;;;;6.56;100.00;101023.13;5014985;28;20065;-89
2022/12/09 10:21:50;;;;;;;60.15;55.22;;;;;;;6.53;100.00;101010.28;5014819;28;20474;-84
2022/12/09 10:24:27;;;;;;;57.38;52.60;;;;;;;6.46;100.00;101008.50;5015569;28;20046;-85
2022/12/09 10:27:03;;;;;;;55.45;50.67;;;;;;;6.60;100.00;101008.59;5015405;28;20060;-85
2022/12/09 10:29:43;;;;;;;54.80;50.03;;;;;;;6.61;100.00;101006.78;5015031;28;20493;-87
2022/12/09 10:32:16;;;;;;;58.45;53.00;;;;;;;6.60;100.00;100991.97;5015191;28;20050;-84
2022/12/09 10:34:43;;;;;;;55.97;50.95;;;;;;;6.57;100.00;101006.31;5014138;28;20444;-87
2022/12/09 10:37:24;;;;;;;53.33;48.88;;;;;;;6.72;100.00;100989.72;5014975;28;20042;-86
2022/12/09 10:39:55;;;;;;;55.45;50.65;;;;;;;6.74;100.00;100993.03;5015509;28;20054;-84
2022/12/09 10:45:10;;;;;;;57.65;52.72;;;;;;;7.01;100.00;100995.16;5014473;28;20060;-86
2022/12/09 10:47:39;;;;;;;63.78;57.90;;;;;;;7.14;100.00;100984.03;5016943;28;20180;-83
2022/12/09 10:50:07;;;;;;;55.20;50.53;;;;;;;6.92;100.00;100975.06;5018176;28;20046;-88
2022/12/09 10:52:43;;;;;;;58.05;52.92;;;;;;;7.15;100.00;100975.09;5018735;28;20042;-83
2022/12/09 10:55:24;;;;;;;54.42;49.58;;;;;;;7.29;100.00;100970.84;5018475;28;20058;-85
2022/12/09 10:57:51;;;;;;;51.55;47.67;;;;;;;7.34;100.00;100965.84;5018977;28;20137;-84
2022/12/09 11:00:23;;;;;;;56.75;51.70;;;;;;;6.92;100.00;100972.44;5019961;28;20107;-86
2022/12/09 11:02:53;;;;;;;;;;;;;;;6.69;100.00;100974.22;5019730;28;20050;-83
2022/12/09 11:05:26;;;;;;;71.28;64.13;;;;;;;6.86;100.00;100967.84;5017897;28;19921;-83
2022/12/09 11:07:54;;;;;;;61.72;55.90;;;;;;;7.23;100.00;100948.63;5018822;28;20060;-87
2022/12/09 11:10:22;;;;;;;57.50;52.30;;;;;;;7.10;100.00;100962.41;5019439;28;20073;-88
2022/12/09 11:12:52;;;;;;;64.82;58.60;;;;;;;7.16;100.00;100952.94;5018253;28;20042;-84
2022/12/09 11:15:27;;;;;;;65.60;58.83;;;;;;;7.37;100.00;100951.47;5018729;28;20123;-84
2022/12/09 11:18:05;;;;;;;74.30;64.15;;;;;;;7.28;100.00;100946.25;5017496;28;20413;-84
2022/12/09 11:20:33;;;;;;;73.38;64.28;;;;;;;7.29;100.00;100942.63;5019027;28;20561;-86